createdAt,value
2019-05-07T00:00:29.692Z,16.73
2019-05-07T00:02:58.112Z,24.27
2019-05-07T00:05:26.726Z,20.52
2019-05-07T00:07:55.150Z,18.23
2019-05-07T00:10:24.866Z,12.98
2019-05-07T00:12:53.583Z,16.10
2019-05-07T00:15:23.022Z,18.30
2019-05-07T00:17:52.291Z,17.47
2019-05-07T00:20:23.002Z,16.40
2019-05-07T00:22:53.258Z,16.75
2019-05-07T00:25:22.870Z,16.27
2019-05-07T00:27:52.331Z,16.20
2019-05-07T00:30:22.352Z,22.30
2019-05-07T00:32:52.955Z,18.40
2019-05-07T00:35:22.738Z,17.48
2019-05-07T00:37:53.047Z,19.67
2019-05-07T00:40:23.072Z,25.02
2019-05-07T00:43:05.123Z,22.37
2019-05-07T00:45:35.184Z,16.02
2019-05-07T00:48:03.600Z,19.57
2019-05-07T00:50:33.651Z,15.35
2019-05-07T00:53:02.220Z,25.72
2019-05-07T00:55:32.605Z,21.15
2019-05-07T00:58:02.393Z,19.98
2019-05-07T01:00:33.246Z,27.17
2019-05-07T01:03:03.061Z,22.13
2019-05-07T01:05:32.573Z,21.20
2019-05-07T01:08:02.546Z,21.17
2019-05-07T01:10:32.987Z,24.10
2019-05-07T01:13:02.765Z,23.73
2019-05-07T01:15:34.347Z,27.00
2019-05-07T01:18:02.888Z,15.03
2019-05-07T01:20:32.930Z,24.75
2019-05-07T01:23:02.574Z,22.85
2019-05-07T01:25:32.829Z,15.95
2019-05-07T01:28:02.606Z,18.35
2019-05-07T01:30:32.480Z,21.52
2019-05-07T01:33:08.760Z,23.25
2019-05-07T01:35:44.493Z,20.40
2019-05-07T01:38:14.564Z,19.07
2019-05-07T01:40:43.004Z,19.02
2019-05-07T01:43:12.091Z,17.73
2019-05-07T01:45:48.986Z,16.07
2019-05-07T01:48:14.804Z,21.30
2019-05-07T01:50:43.220Z,17.62
2019-05-07T01:53:12.268Z,12.85
2019-05-07T01:55:42.785Z,16.77
2019-05-07T02:00:42.205Z,23.05
2019-05-07T02:03:12.387Z,17.98
2019-05-07T02:05:42.532Z,16.00
2019-05-07T02:10:45.418Z,18.07
2019-05-07T02:13:13.931Z,17.73
2019-05-07T02:15:42.871Z,23.00
2019-05-07T02:18:12.663Z,19.07
2019-05-07T02:20:42.594Z,18.87
2019-05-07T02:23:12.854Z,19.73
2019-05-07T02:25:42.076Z,18.48
2019-05-07T02:28:12.874Z,17.67
2019-05-07T02:33:13.504Z,12.65
2019-05-07T02:35:43.567Z,16.52
2019-05-07T02:38:13.813Z,15.20
2019-05-07T02:40:46.665Z,16.85
2019-05-07T02:43:15.328Z,14.95
2019-05-07T02:45:45.392Z,19.75
2019-05-07T02:48:15.189Z,15.00
2019-05-07T02:51:04.159Z,16.85
2019-05-07T02:53:34.674Z,17.37
2019-05-07T02:56:04.568Z,15.40
2019-05-07T02:58:33.341Z,18.05
2019-05-07T03:01:04.895Z,22.65
2019-05-07T03:06:02.901Z,18.87
2019-05-07T03:08:33.111Z,15.18
2019-05-07T03:11:03.365Z,16.27
2019-05-07T03:13:33.682Z,22.90
2019-05-07T03:16:03.792Z,19.95
2019-05-07T03:18:33.487Z,24.18
2019-05-07T03:21:04.148Z,25.97
2019-05-07T03:23:45.890Z,21.60
2019-05-07T03:26:18.567Z,23.83
2019-05-07T03:28:54.875Z,19.73
2019-05-07T03:31:35.680Z,22.62
2019-05-07T03:34:16.291Z,21.30
2019-05-07T03:36:48.061Z,19.42
2019-05-07T03:39:16.283Z,20.43
2019-05-07T03:41:45.183Z,17.80
2019-05-07T03:44:24.173Z,15.73
2019-05-07T03:47:01.478Z,16.77
2019-05-07T03:49:36.002Z,21.30
2019-05-07T03:52:04.676Z,14.40
2019-05-07T03:54:33.954Z,21.17
2019-05-07T03:57:10.773Z,14.15
2019-05-07T03:59:34.208Z,23.42
2019-05-07T04:02:03.492Z,22.55
2019-05-07T04:04:33.240Z,24.02
2019-05-07T04:07:03.386Z,24.32
2019-05-07T04:09:33.330Z,18.90
2019-05-07T04:12:03.919Z,21.12
2019-05-07T04:17:14.443Z,16.57
2019-05-07T04:19:32.836Z,32.33
2019-05-07T04:22:04.339Z,19.02
2019-05-07T04:24:33.553Z,17.75
2019-05-07T04:27:13.127Z,17.45
2019-05-07T04:29:42.913Z,19.70
2019-05-07T04:32:14.337Z,17.95
2019-05-07T04:35:03.591Z,19.35
2019-05-07T04:37:33.209Z,15.80
2019-05-07T04:40:03.185Z,21.70
2019-05-07T04:42:33.388Z,19.57
2019-05-07T04:47:42.581Z,13.25
2019-05-07T04:50:03.880Z,20.43
2019-05-07T04:52:35.202Z,12.03
2019-05-07T04:55:04.784Z,24.82
2019-05-07T04:57:33.204Z,21.83
2019-05-07T05:00:03.300Z,18.00
2019-05-07T05:02:33.580Z,20.27
2019-05-07T05:05:03.247Z,16.95
2019-05-07T05:07:33.504Z,15.38
2019-05-07T05:12:32.606Z,22.67
2019-05-07T05:15:02.130Z,22.90
2019-05-07T05:17:32.056Z,21.30
2019-05-07T05:20:03.620Z,16.87
2019-05-07T05:25:24.800Z,27.05
2019-05-07T05:27:53.293Z,29.07
2019-05-07T05:30:42.267Z,23.50
2019-05-07T05:33:12.636Z,18.25
2019-05-07T05:38:08.190Z,24.72
2019-05-07T05:40:36.643Z,21.05
2019-05-07T05:43:18.581Z,20.77
2019-05-07T05:45:48.637Z,26.65
2019-05-07T05:48:17.068Z,15.98
2019-05-07T05:51:03.162Z,27.90
2019-05-07T05:53:43.320Z,20.82
2019-05-07T05:56:13.602Z,23.90
2019-05-07T05:58:49.788Z,18.90
2019-05-07T06:04:22.295Z,22.60
2019-05-07T06:07:07.997Z,20.92
2019-05-07T06:09:43.488Z,25.75
2019-05-07T06:12:13.542Z,17.75
2019-05-07T06:14:55.469Z,19.02
2019-05-07T06:17:42.537Z,19.25
2019-05-07T06:20:25.139Z,14.70
2019-05-07T06:23:13.188Z,21.00
2019-05-07T06:25:43.333Z,14.70
2019-05-07T06:28:12.767Z,22.48
2019-05-07T06:30:41.826Z,18.35
2019-05-07T06:33:12.435Z,19.55
2019-05-07T06:35:42.316Z,16.12
2019-05-07T06:38:12.472Z,17.40
2019-05-07T06:40:49.023Z,23.12
2019-05-07T06:43:33.712Z,19.85
2019-05-07T06:46:04.005Z,25.70
2019-05-07T06:48:42.011Z,14.75
2019-05-07T06:51:03.187Z,18.73
2019-05-07T06:53:33.491Z,13.20
2019-05-07T06:58:45.044Z,18.87
2019-05-07T07:01:22.764Z,20.88
2019-05-07T07:03:58.778Z,22.77
2019-05-07T07:06:45.253Z,18.57
2019-05-07T07:09:32.887Z,17.17
2019-05-07T07:12:03.146Z,17.73
2019-05-07T07:14:33.107Z,18.87
2019-05-07T07:17:02.368Z,15.30
2019-05-07T07:19:32.183Z,15.13
2019-05-07T07:22:02.402Z,17.60
2019-05-07T07:24:32.921Z,19.70
2019-05-07T07:27:02.441Z,18.35
2019-05-07T07:32:05.225Z,15.78
2019-05-07T07:34:35.291Z,15.08
2019-05-07T07:37:09.777Z,17.55
2019-05-07T07:39:35.503Z,16.55
2019-05-07T07:42:05.602Z,19.98
2019-05-07T07:44:34.009Z,15.05
2019-05-07T07:47:02.660Z,17.12
2019-05-07T07:49:33.018Z,14.45
2019-05-07T07:52:03.178Z,14.68
2019-05-07T07:54:32.191Z,13.50
2019-05-07T07:57:02.523Z,19.60
2019-05-07T07:59:38.691Z,12.80
2019-05-07T08:02:14.209Z,19.57
2019-05-07T08:04:42.774Z,15.98
2019-05-07T08:07:12.393Z,13.68
2019-05-07T08:09:42.761Z,17.30
2019-05-07T08:12:12.763Z,13.90
2019-05-07T08:14:42.695Z,10.48
2019-05-07T08:17:12.991Z,9.38
2019-05-07T08:19:42.843Z,9.60
2019-05-07T08:22:12.097Z,9.93
2019-05-07T08:24:42.625Z,15.75
2019-05-07T08:27:12.894Z,12.75
2019-05-07T08:29:42.985Z,14.85
2019-05-07T08:32:19.252Z,14.60
2019-05-07T08:34:49.429Z,10.75
2019-05-07T08:37:17.851Z,11.80
2019-05-07T08:39:46.346Z,12.40
2019-05-07T08:42:14.774Z,10.72
2019-05-07T08:44:44.854Z,13.35
2019-05-07T08:47:26.807Z,11.43
2019-05-07T08:49:55.235Z,12.15
2019-05-07T08:52:26.163Z,17.10
2019-05-07T08:54:53.804Z,13.25
2019-05-07T08:57:23.061Z,13.45
2019-05-07T09:00:00.832Z,14.75
2019-05-07T09:02:22.339Z,12.28
2019-05-07T09:04:52.286Z,11.80
2019-05-07T09:07:22.013Z,12.65
2019-05-07T09:09:52.307Z,14.47
2019-05-07T09:12:22.717Z,11.93
2019-05-07T09:14:52.834Z,14.33
2019-05-07T09:17:22.893Z,9.95
2019-05-07T09:19:54.522Z,11.30
2019-05-07T09:22:23.010Z,12.23
2019-05-07T09:24:52.620Z,9.63
2019-05-07T09:27:26.057Z,9.43
2019-05-07T09:30:08.814Z,8.80
2019-05-07T09:32:42.544Z,13.30
2019-05-07T09:35:12.968Z,12.45
2019-05-07T09:40:12.567Z,9.80
2019-05-07T09:45:12.095Z,11.48
2019-05-07T09:47:41.759Z,9.63
2019-05-07T09:50:11.859Z,8.45
2019-05-07T09:52:42.721Z,8.85
2019-05-07T09:55:16.613Z,7.67
2019-05-07T09:57:42.615Z,10.18
2019-05-07T10:00:12.874Z,11.43
2019-05-07T10:02:42.516Z,9.40
2019-05-07T10:05:11.678Z,10.03
2019-05-07T10:07:42.211Z,9.60
2019-05-07T10:10:11.952Z,12.33
2019-05-07T10:15:13.906Z,12.55
2019-05-07T10:17:55.773Z,7.58
2019-05-07T10:20:25.060Z,8.73
2019-05-07T10:22:53.637Z,10.03
2019-05-07T10:25:22.521Z,11.38
2019-05-07T10:27:53.150Z,9.00
2019-05-07T10:30:21.962Z,7.65
2019-05-07T10:32:52.529Z,12.10
2019-05-07T10:35:22.916Z,11.97
2019-05-07T10:37:52.871Z,10.67
2019-05-07T10:40:22.436Z,10.78
2019-05-07T10:42:51.930Z,17.07
2019-05-07T10:45:25.167Z,10.63
2019-05-07T10:47:58.153Z,11.30
2019-05-07T10:50:36.345Z,13.38
2019-05-07T10:52:58.438Z,10.03
2019-05-07T10:55:26.885Z,10.43
2019-05-07T10:57:55.321Z,9.17
2019-05-07T11:00:26.266Z,7.12
2019-05-07T11:02:54.762Z,11.48
2019-05-07T11:05:23.195Z,11.33
2019-05-07T11:07:53.700Z,8.68
2019-05-07T11:10:22.200Z,11.40
2019-05-07T11:12:51.757Z,14.20
2019-05-07T11:15:22.094Z,10.00
2019-05-07T11:17:52.285Z,8.70
2019-05-07T11:20:22.624Z,11.43
2019-05-07T11:25:22.373Z,9.98
2019-05-07T11:27:52.342Z,8.60
2019-05-07T11:32:48.589Z,8.73
2019-05-07T11:35:17.021Z,14.18
2019-05-07T11:37:45.442Z,11.38
2019-05-07T11:40:15.144Z,9.25
2019-05-07T11:42:48.179Z,8.33
2019-05-07T11:45:18.605Z,8.10
2019-05-07T11:50:18.952Z,9.88
2019-05-07T11:52:51.805Z,8.00
2019-05-07T11:55:22.283Z,8.13
2019-05-07T11:57:51.849Z,6.73
2019-05-07T12:00:25.250Z,7.75
2019-05-07T12:02:53.667Z,7.50
2019-05-07T12:05:22.698Z,7.72
2019-05-07T12:07:51.243Z,7.47
2019-05-07T12:10:19.687Z,8.60
2019-05-07T12:12:48.109Z,7.67
2019-05-07T12:15:17.638Z,6.03
2019-05-07T12:17:46.077Z,11.40
2019-05-07T12:20:16.259Z,6.60
2019-05-07T12:22:47.901Z,7.92
2019-05-07T12:25:21.229Z,8.50
2019-05-07T12:27:52.782Z,7.50
2019-05-07T12:30:29.851Z,7.03
2019-05-07T12:33:02.416Z,7.67
2019-05-07T12:35:30.798Z,7.08
2019-05-07T12:37:59.223Z,8.23
2019-05-07T12:40:27.639Z,4.97
2019-05-07T12:42:56.093Z,7.13
2019-05-07T12:45:24.526Z,7.35
2019-05-07T12:47:53.076Z,4.90
2019-05-07T12:50:21.976Z,6.17
2019-05-07T12:53:02.243Z,8.27
2019-05-07T12:55:35.171Z,5.87
2019-05-07T12:58:03.606Z,7.42
2019-05-07T13:00:51.958Z,5.50
2019-05-07T13:03:21.960Z,6.47
2019-05-07T13:05:52.120Z,7.15
2019-05-07T13:08:23.069Z,8.48
2019-05-07T13:10:51.918Z,4.83
2019-05-07T13:13:20.444Z,5.33
2019-05-07T13:15:48.867Z,7.95
2019-05-07T13:18:17.306Z,6.55
2019-05-07T13:20:48.800Z,8.35
2019-05-07T13:23:15.956Z,6.60
2019-05-07T13:25:44.440Z,6.33
2019-05-07T13:28:12.878Z,7.78
2019-05-07T13:30:43.613Z,6.50
2019-05-07T13:33:12.892Z,7.60
2019-05-07T13:35:41.990Z,9.93
2019-05-07T13:40:59.400Z,9.73
2019-05-07T13:43:29.468Z,9.30
2019-05-07T13:45:59.792Z,11.25
2019-05-07T13:48:28.692Z,8.60
2019-05-07T13:50:57.111Z,10.23
2019-05-07T13:53:25.641Z,8.73
2019-05-07T13:55:54.124Z,9.25
2019-05-07T13:58:23.098Z,8.45
2019-05-07T14:01:12.104Z,7.62
2019-05-07T14:03:40.617Z,6.33
2019-05-07T14:06:09.107Z,9.48
2019-05-07T14:08:39.191Z,8.05
2019-05-07T14:11:07.791Z,9.23
2019-05-07T14:13:37.343Z,5.60
2019-05-07T14:16:11.910Z,12.73
2019-05-07T14:18:40.444Z,6.20
2019-05-07T14:21:09.243Z,11.15
2019-05-07T14:23:37.698Z,7.85
2019-05-07T14:26:06.209Z,6.92
2019-05-07T14:28:34.634Z,8.98
2019-05-07T14:31:04.204Z,7.60
2019-05-07T14:33:49.244Z,11.17
2019-05-07T14:36:35.637Z,8.58
2019-05-07T14:39:06.696Z,21.12
2019-05-07T14:41:35.917Z,8.20
2019-05-07T14:44:15.836Z,10.70
2019-05-07T14:46:50.837Z,7.28
2019-05-07T14:49:14.645Z,8.68
2019-05-07T14:51:43.081Z,7.12
2019-05-07T14:54:12.329Z,7.75
2019-05-07T14:56:42.683Z,15.95
2019-05-07T14:59:12.759Z,6.75
2019-05-07T15:04:12.750Z,7.58
2019-05-07T15:06:40.881Z,8.33
2019-05-07T15:09:11.952Z,5.80
2019-05-07T15:11:39.893Z,8.98
2019-05-07T15:14:11.871Z,10.00
2019-05-07T15:16:42.423Z,9.45
2019-05-07T15:19:12.472Z,8.45
2019-05-07T15:21:42.660Z,10.68
2019-05-07T15:24:14.106Z,10.48
2019-05-07T15:26:42.579Z,12.28
2019-05-07T15:29:12.406Z,6.72
2019-05-07T15:31:42.468Z,7.30
2019-05-07T15:34:12.439Z,9.55
2019-05-07T15:36:42.397Z,9.18
2019-05-07T15:39:13.277Z,10.53
2019-05-07T15:41:42.539Z,8.18
2019-05-07T15:44:11.892Z,6.78
2019-05-07T15:46:42.683Z,6.42
2019-05-07T15:49:12.538Z,9.28
2019-05-07T15:54:12.906Z,8.27
2019-05-07T15:56:41.455Z,7.03
2019-05-07T15:59:12.798Z,8.73
2019-05-07T16:01:42.025Z,10.00
2019-05-07T16:04:21.723Z,13.43
2019-05-07T16:06:42.457Z,6.78
2019-05-07T16:09:12.986Z,8.45
2019-05-07T16:11:43.121Z,9.13
2019-05-07T16:16:47.743Z,9.35
2019-05-07T16:19:20.539Z,8.40
2019-05-07T16:21:48.951Z,7.75
2019-05-07T16:24:17.397Z,7.20
2019-05-07T16:26:52.485Z,8.35
2019-05-07T16:29:22.476Z,11.03
2019-05-07T16:31:52.128Z,9.63
2019-05-07T16:34:22.014Z,7.57
2019-05-07T16:36:50.824Z,8.63
2019-05-07T16:39:19.342Z,6.15
2019-05-07T16:41:47.777Z,9.18
2019-05-07T16:44:16.203Z,10.23
2019-05-07T16:46:44.949Z,11.43
2019-05-07T16:49:13.380Z,9.80
2019-05-07T16:51:44.575Z,12.47
2019-05-07T16:54:12.282Z,5.70
2019-05-07T16:56:42.814Z,10.30
2019-05-07T16:59:12.612Z,7.97
2019-05-07T17:01:42.866Z,7.03
2019-05-07T17:04:12.149Z,10.18
2019-05-07T17:06:42.606Z,8.93
2019-05-07T17:09:13.455Z,6.90
2019-05-07T17:11:43.756Z,12.65
2019-05-07T17:14:13.081Z,8.15
2019-05-07T17:16:41.609Z,9.93
2019-05-07T17:19:11.852Z,7.25
2019-05-07T17:21:40.464Z,9.55
2019-05-07T17:24:08.901Z,6.92
2019-05-07T17:26:37.465Z,11.63
2019-05-07T17:29:05.950Z,9.13
2019-05-07T17:31:34.328Z,12.05
2019-05-07T17:34:02.746Z,6.87
2019-05-07T17:36:33.027Z,7.90
2019-05-07T17:39:02.766Z,7.87
2019-05-07T17:41:32.286Z,8.13
2019-05-07T17:44:02.760Z,10.53
2019-05-07T17:46:32.388Z,10.05
2019-05-07T17:49:02.425Z,6.83
2019-05-07T17:51:42.132Z,7.12
2019-05-07T17:54:13.116Z,6.15
2019-05-07T17:56:42.733Z,8.55
2019-05-07T17:59:12.237Z,12.13
2019-05-07T18:01:53.008Z,7.90
2019-05-07T18:04:21.835Z,8.83
2019-05-07T18:06:52.255Z,9.15
2019-05-07T18:09:22.411Z,8.05
2019-05-07T18:11:52.216Z,8.18
2019-05-07T18:16:57.805Z,11.10
2019-05-07T18:19:27.564Z,6.90
2019-05-07T18:21:56.009Z,11.43
2019-05-07T18:24:24.435Z,9.88
2019-05-07T18:26:54.295Z,8.55
2019-05-07T18:29:22.741Z,9.20
2019-05-07T18:31:58.698Z,33.88
2019-05-07T18:34:27.134Z,9.55
2019-05-07T18:36:55.546Z,9.95
2019-05-07T18:39:24.079Z,10.32
2019-05-07T18:41:52.498Z,10.93
2019-05-07T18:44:22.307Z,10.72
2019-05-07T18:46:52.901Z,9.15
2019-05-07T18:49:21.104Z,8.50
2019-05-07T18:51:49.537Z,9.48
2019-05-07T18:54:27.810Z,8.35
2019-05-07T18:56:48.107Z,7.30
2019-05-07T18:59:17.410Z,13.53
2019-05-07T19:01:45.841Z,11.08
2019-05-07T19:04:14.265Z,11.83
2019-05-07T19:06:42.697Z,13.08
2019-05-07T19:09:11.211Z,12.37
2019-05-07T19:11:39.645Z,17.05
2019-05-07T19:14:08.134Z,15.38
2019-05-07T19:16:36.557Z,14.18
2019-05-07T19:19:05.078Z,14.73
2019-05-07T19:21:33.565Z,13.35
2019-05-07T19:24:02.385Z,18.12
2019-05-07T19:26:31.102Z,15.38
2019-05-07T19:28:59.637Z,15.35
2019-05-07T19:31:28.149Z,17.07
2019-05-07T19:33:56.827Z,14.13
2019-05-07T19:36:25.251Z,16.87
2019-05-07T19:38:53.781Z,15.45
2019-05-07T19:41:22.204Z,16.62
2019-05-07T19:43:52.608Z,14.43
2019-05-07T19:46:22.861Z,17.48
2019-05-07T19:51:20.293Z,29.87
2019-05-07T19:53:48.723Z,26.68
2019-05-07T19:56:18.820Z,42.30
2019-05-07T19:58:47.247Z,38.80
2019-05-07T20:01:17.318Z,34.98
2019-05-07T20:03:45.782Z,29.90
2019-05-07T20:06:14.282Z,29.18
2019-05-07T20:08:43.687Z,26.05
2019-05-07T20:11:14.313Z,27.37
2019-05-07T20:13:43.806Z,21.93
2019-05-07T20:16:19.325Z,25.62
2019-05-07T20:18:47.937Z,22.62
2019-05-07T20:21:16.460Z,18.50
2019-05-07T20:23:44.893Z,21.07
2019-05-07T20:26:13.410Z,21.25
2019-05-07T20:28:41.995Z,19.23
2019-05-07T20:31:12.303Z,17.30
2019-05-07T20:33:42.304Z,19.52
2019-05-07T20:36:10.831Z,25.72
2019-05-07T20:38:39.286Z,35.63
2019-05-07T20:41:07.732Z,20.77
2019-05-07T20:43:36.160Z,20.08
2019-05-07T20:46:04.590Z,14.75
2019-05-07T20:48:33.010Z,12.63
2019-05-07T20:51:01.436Z,13.30
2019-05-07T20:53:52.279Z,18.90
2019-05-07T20:56:22.677Z,20.57
2019-05-07T21:01:21.985Z,25.45
2019-05-07T21:03:52.586Z,21.52
2019-05-07T21:06:22.479Z,32.65
2019-05-07T21:11:18.788Z,16.82
2019-05-07T21:13:47.202Z,26.27
2019-05-07T21:16:15.628Z,16.12
2019-05-07T21:18:44.078Z,20.52
2019-05-07T21:21:12.678Z,19.52
2019-05-07T21:23:43.187Z,26.17
2019-05-07T21:26:13.053Z,17.80
2019-05-07T21:28:43.170Z,16.52
2019-05-07T21:31:12.032Z,16.67
2019-05-07T21:33:42.675Z,15.10
2019-05-07T21:36:12.057Z,14.55
2019-05-07T21:41:10.214Z,18.45
2019-05-07T21:43:38.641Z,20.02
2019-05-07T21:46:07.055Z,17.87
2019-05-07T21:48:35.484Z,15.98
2019-05-07T21:51:03.927Z,20.97
2019-05-07T21:53:33.987Z,19.32
2019-05-07T21:56:13.098Z,16.05
2019-05-07T21:58:46.142Z,20.43
2019-05-07T22:01:16.511Z,16.75
2019-05-07T22:03:47.115Z,19.92
2019-05-07T22:08:43.186Z,16.20
2019-05-07T22:11:12.513Z,20.52
2019-05-07T22:13:43.256Z,21.07
2019-05-07T22:16:13.015Z,21.57
2019-05-07T22:18:42.708Z,18.73
2019-05-07T22:21:12.496Z,16.75
2019-05-07T22:23:42.853Z,15.75
2019-05-07T22:26:20.260Z,16.97
2019-05-07T22:28:42.190Z,15.85
2019-05-07T22:31:12.766Z,16.52
2019-05-07T22:33:44.039Z,14.38
2019-05-07T22:36:12.786Z,22.20
2019-05-07T22:38:41.195Z,13.25
2019-05-07T22:41:09.619Z,9.28
2019-05-07T22:43:38.045Z,12.23
2019-05-07T22:46:06.453Z,11.93
2019-05-07T22:48:34.885Z,9.08
2019-05-07T22:51:03.305Z,9.08
2019-05-07T22:53:32.775Z,10.23
2019-05-07T22:56:03.171Z,10.03
2019-05-07T22:58:33.499Z,12.43
2019-05-07T23:01:06.508Z,9.30
2019-05-07T23:03:35.000Z,9.33
2019-05-07T23:06:06.271Z,8.88
2019-05-07T23:08:36.692Z,12.95
2019-05-07T23:11:06.511Z,14.68
2019-05-07T23:13:34.880Z,12.63
2019-05-07T23:16:03.326Z,14.70
2019-05-07T23:18:31.960Z,11.68
2019-05-07T23:21:00.495Z,12.35
2019-05-07T23:23:29.203Z,13.65
2019-05-07T23:25:57.622Z,10.50
2019-05-07T23:28:26.047Z,14.98
2019-05-07T23:30:54.536Z,13.05
2019-05-07T23:33:23.051Z,12.63
2019-05-07T23:35:52.768Z,9.88
2019-05-07T23:38:22.533Z,13.60
2019-05-07T23:40:55.614Z,14.47
2019-05-07T23:43:24.212Z,13.15
2019-05-07T23:45:52.740Z,13.05
2019-05-07T23:48:22.849Z,20.15
2019-05-07T23:50:52.509Z,8.83
2019-05-07T23:53:22.472Z,10.03
2019-05-07T23:55:52.002Z,10.63
2019-05-07T23:58:22.923Z,10.65
